Home > Products > Valid Products > TAF

000
FTUS41 KAKQ 202300
TAFECG
TAF
KECG 202331Z 2100/2124 04003KT P6SM BKN050 OVC080
     FM210500 02003KT P6SM BKN080
     FM211500 03008KT P6SM SCT080=



000
FTUS41 KAKQ 202300
TAFPHF
TAF
KPHF 202331Z 2100/2124 00000KT P6SM BKN080
     FM211400 05005KT P6SM SKC=



000
FTUS41 KAKQ 202300
TAFRIC
TAF
KRIC 202331Z 2100/2124 00000KT P6SM OVC080
     FM211000 04003KT P6SM SCT080
     FM211500 06004KT P6SM SKC=



000
FTUS41 KAKQ 202300
TAFSBY
TAF
KSBY 202331Z 2100/2124 00000KT P6SM BKN100
     FM210900 00000KT P6SM SCT100
     FM211400 35005KT P6SM SKC=



000
FTUS41 KAKQ 202300
TAFORF
TAF
KORF 202331Z 2100/2124 03003KT P6SM BKN080
     FM211400 04008KT P6SM SKC=



000
FTUS41 KAKQ 201700
TAFPHF
TAF
KPHF 201740Z 2018/2118 03005KT P6SM BKN040 OVC080
     FM202300 04005KT P6SM BKN050
     FM211400 03007KT P6SM SCT070=



000
FTUS41 KAKQ 201700
TAFSBY
TAF
KSBY 201740Z 2018/2118 34005KT P6SM BKN100
     FM202300 00000KT P6SM BKN250
     FM210900 00000KT P6SM SCT100=



000
FTUS41 KAKQ 201700
TAFRIC
TAF
KRIC 201740Z 2018/2118 05005KT P6SM BKN070 OVC100
     FM210200 04003KT P6SM BKN100
     FM211500 06004KT P6SM BKN050=



000
FTUS41 KAKQ 201700
TAFECG
TAF
KECG 201740Z 2018/2118 02005KT P6SM -RA BKN040 OVC050
     FM202100 04002KT P6SM BKN100
     FM211500 03008KT P6SM SCT050=



000
FTUS41 KAKQ 201700
TAFORF
TAF
KORF 201740Z 2018/2118 03005KT P6SM SCT040 OVC100
     FM202000 04005KT P6SM VCSH SCT030 OVC080
     FM202200 04005KT P6SM BKN050
     FM211400 03008KT P6SM SCT050=



000
FTUS41 KAKQ 201100
TAFECG
TAF
KECG 201130Z 2012/2112 35008KT P6SM BKN100
     FM201600 34006KT P6SM VCSH SCT040 OVC080
     FM201800 02005KT P6SM -RA BKN020 OVC050
     FM210000 04002KT P6SM BKN100=



000
FTUS41 KAKQ 201100
TAFPHF
TAF
KPHF 201130Z 2012/2112 36003KT P6SM SCT080 OVC150
     FM201600 03005KT P6SM BKN040 OVC080
     FM202000 03004KT P6SM VCSH BKN030 OVC060
     FM202300 04005KT P6SM BKN050=



000
FTUS41 KAKQ 201100
TAFORF
TAF
KORF 201130Z 2012/2112 35004KT P6SM SCT020 OVC150
     FM201400 03005KT P6SM SCT040 OVC100
     FM202100 04005KT P6SM VCSH BKN030 OVC060
     FM210100 04005KT P6SM BKN050=



000
FTUS41 KAKQ 201100
TAFRIC
TAF
KRIC 201130Z 2012/2112 03003KT P6SM SCT050 OVC150
     FM201800 35005KT P6SM VCSH BKN050 OVC080
     FM202300 VRB03KT P6SM BKN100=



000
FTUS41 KAKQ 201100
TAFSBY
TAF
KSBY 201130Z 2012/2112 00000KT P6SM SCT150
     FM201700 34005KT P6SM BKN100
     FM202300 00000KT P6SM BKN250=



000
FTUS41 KAKQ 200500
TAFORF
TAF
KORF 200539Z 2006/2106 01005KT P6SM BKN200
     FM201400 03005KT P6SM BKN050 OVC080
     FM201800 04005KT P6SM VCSH BKN030 OVC080=



000
FTUS41 KAKQ 200500
TAFPHF
TAF
KPHF 200539Z 2006/2106 02003KT P6SM BKN200
     FM201600 04005KT P6SM BKN080
     FM201800 03004KT P6SM VCSH BKN030 OVC080=



000
FTUS41 KAKQ 200500
TAFSBY
TAF
KSBY 200539Z 2006/2106 33003KT P6SM SCT250
     FM201700 34005KT P6SM BKN100
     FM202300 00000KT P6SM BKN250=



000
FTUS41 KAKQ 200500
TAFECG
TAF
KECG 200539Z 2006/2106 36005KT P6SM BKN200
     FM201600 34006KT P6SM VCSH SCT040 OVC080
     FM202000 02005KT P6SM -RA BKN020 OVC050
     FM210000 04002KT P6SM BKN100=



000
FTUS41 KAKQ 200500
TAFRIC
TAF
KRIC 200539Z 2006/2106 03004KT P6SM BKN250
     FM201400 03003KT P6SM SCT050 OVC080
     FM201800 35005KT P6SM VCSH BKN050 OVC080
     FM202300 VRB03KT P6SM BKN100=



000
FTUS41 KAKQ 192300
TAFRIC
TAF
KRIC 192337Z 2000/2024 03004KT P6SM BKN250
     FM201400 03003KT P6SM OVC080
     FM201700 VRB04KT P6SM BKN050 OVC080=



000
FTUS41 KAKQ 192300
TAFORF
TAF
KORF 192337Z 2000/2024 01005KT P6SM SCT250
     FM200800 03006KT P6SM BKN200
     FM201400 03007KT P6SM BKN050 OVC080
     FM201800 04005KT P6SM -RA BKN030 OVC080=



000
FTUS41 KAKQ 192300
TAFECG
TAF
KECG 192337Z 2000/2024 02003KT P6SM BKN250
     FM200700 36005KT P6SM BKN200
     FM201700 02006KT P6SM -RA SCT030 OVC080
     FM202000 04005KT P6SM -RA BKN020 OVC050=



000
FTUS41 KAKQ 192300
TAFPHF
TAF
KPHF 192337Z 2000/2024 36005KT P6SM SCT250
     FM200800 02003KT P6SM BKN200
     FM201600 04005KT P6SM BKN080
     FM201900 03004KT P6SM BKN030 OVC080=



000
FTUS41 KAKQ 192300
TAFSBY
TAF
KSBY 192337Z 2000/2024 32004KT P6SM SCT250
     FM201700 34003KT P6SM BKN100=



000
FTUS41 KAKQ 191700
TAFRIC
TAF
KRIC 191729Z 1918/2018 VRB06KT P6SM SKC
     FM200800 03003KT P6SM BKN200
     FM201600 VRB04KT P6SM BKN030 OVC080=



000
FTUS41 KAKQ 191700
TAFECG
TAF
KECG 191729Z 1918/2018 35006KT P6SM SKC
     FM200700 36005KT P6SM BKN200
     FM201700 02006KT P6SM VCSH SCT020 OVC080=



000
FTUS41 KAKQ 191700
TAFSBY
TAF
KSBY 191729Z 1918/2018 31009KT P6SM OVC035
     FM200200 VRB03KT P6SM BKN030
     FM201700 34005KT P6SM SCT025 OVC150=



000
FTUS41 KAKQ 191700
TAFORF
TAF
KORF 191729Z 1918/2018 36007KT P6SM SKC
     FM200800 03006KT P6SM SCT020 BKN200
     FM201600 03006KT P6SM BKN020 OVC080=



000
FTUS41 KAKQ 191700
TAFPHF
TAF
KPHF 191729Z 1918/2018 36008KT P6SM SKC
     FM200800 02004KT P6SM BKN200
     FM201600 04005KT P6SM SCT020 OVC080=



000
FTUS41 KAKQ 191600 AAB
TAFSBY
TAF AMD
KSBY 191633Z 1917/2012 31009KT P6SM OVC030
     FM192200 32004KT P6SM SCT035=



000
FTUS41 KAKQ 191500 AAA
TAFECG
TAF AMD
KECG 191523Z 1915/2012 35008KT P6SM SKC
     FM192200 36004KT P6SM SKC
     FM200700 36005KT P6SM SCT200=



000
FTUS41 KAKQ 191500 AAA
TAFPHF
TAF AMD
KPHF 191515Z 1915/2012 36006KT P6SM SKC
     FM200800 02004KT P6SM SCT200=



000
FTUS41 KAKQ 191500 AAA
TAFORF
TAF AMD
KORF 191514Z 1915/2012 36006KT P6SM SKC
     FM200800 02006KT P6SM SCT200=



000
FTUS41 KAKQ 191500 AAA
TAFRIC
TAF AMD
KRIC 191513Z 1915/2012 02008KT P6SM SKC
     FM191700 33009G15KT P6SM SCT035
     FM192200 02003KT P6SM SCT250=



000
FTUS41 KAKQ 191500 AAA
TAFSBY
TAF AMD
KSBY 191500Z 1915/2012 31012G20KT P6SM OVC030
     FM192200 32004KT P6SM SCT035=



000
FTUS41 KAKQ 191100
TAFECG
TAF
KECG 191120Z 1912/2012 35006KT P6SM SCT250=



000
FTUS41 KAKQ 191100
TAFSBY
TAF
KSBY 191120Z 1912/2012 30007KT P6SM BKN120
     FM191500 32009KT P6SM SCT040
     FM192200 32003KT P6SM SKC=



000
FTUS41 KAKQ 191100
TAFORF
TAF
KORF 191120Z 1912/2012 36004KT P6SM SCT100
     FM191500 36007KT P6SM SCT250=



000
FTUS41 KAKQ 191100
TAFPHF
TAF
KPHF 191120Z 1912/2012 34004KT P6SM SCT100
     FM191500 35007KT P6SM SCT250=



000
FTUS41 KAKQ 191100
TAFRIC
TAF
KRIC 191120Z 1912/2012 34005KT P6SM SCT090
     FM191500 36006KT P6SM SCT040
     FM192200 01003KT P6SM SKC=



000
FTUS41 KAKQ 190500
TAFECG
TAF
KECG 190520Z 1906/2006 34004KT P6SM BKN090
     FM191400 36007KT P6SM SCT250=



000
FTUS41 KAKQ 190500
TAFPHF
TAF
KPHF 190520Z 1906/2006 35004KT P6SM BKN090
     FM191400 36007KT P6SM SCT250=



000
FTUS41 KAKQ 190500
TAFSBY
TAF
KSBY 190520Z 1906/2006 31004KT P6SM BKN100
     FM191400 32009KT P6SM SCT040=



000
FTUS41 KAKQ 190500
TAFORF
TAF
KORF 190520Z 1906/2006 35006KT P6SM BKN090
     FM191400 36007KT P6SM SCT250=



000
FTUS41 KAKQ 190500
TAFRIC
TAF
KRIC 190520Z 1906/2006 01004KT P6SM BKN090
     FM191400 36006KT P6SM SCT040=



000
FTUS41 KAKQ 190000 AAA
TAFSBY
TAF AMD
KSBY 190020Z 1900/1924 31004KT P6SM SCT100 BKN250
     FM191400 32009KT P6SM SCT040=



000
FTUS41 KAKQ 190000 AAA
TAFRIC
TAF AMD
KRIC 190019Z 1900/1924 02003KT P6SM BKN100
     FM191400 36006KT P6SM SCT040=



000
FTUS41 KAKQ 182300
TAFECG
TAF
KECG 182338Z 1900/1924 VRB03KT P6SM BKN100
     FM191400 36007KT P6SM SCT250=



000
FTUS41 KAKQ 182300
TAFPHF
TAF
KPHF 182338Z 1900/1924 35003KT P6SM SCT100 BKN250
     FM191400 36007KT P6SM SCT250=



000
FTUS41 KAKQ 182300
TAFSBY
TAF
KSBY 182338Z 1900/1924 31004KT P6SM SCT250
     FM191400 32009KT P6SM SCT040=



000
FTUS41 KAKQ 182300
TAFRIC
TAF
KRIC 182338Z 1900/1924 02003KT P6SM SCT250
     FM191400 36006KT P6SM SCT040=



000
FTUS41 KAKQ 182300
TAFORF
TAF
KORF 182338Z 1900/1924 02003KT P6SM SCT100 BKN250
     FM191400 01007KT P6SM SCT250=



000
FTUS41 KAKQ 181700
TAFPHF
TAF
KPHF 181740Z 1818/1918 34005KT P6SM SCT250
     FM190200 01004KT P6SM BKN120
     FM191100 35008KT P6SM SCT040=



000
FTUS41 KAKQ 181700
TAFORF
TAF
KORF 181740Z 1818/1918 02005KT P6SM SCT250
     FM190200 03004KT P6SM BKN120
     FM191100 02008KT P6SM SCT040=



000
FTUS41 KAKQ 181700
TAFECG
TAF
KECG 181740Z 1818/1918 35006KT P6SM SCT250
     FM182300 VRB03KT P6SM BKN150
     FM191100 35008KT P6SM SCT040=



000
FTUS41 KAKQ 181700
TAFRIC
TAF
KRIC 181740Z 1818/1918 33005KT P6SM SCT250
     FM182300 VRB03KT P6SM BKN100
     FM191000 36006KT P6SM SCT040=



000
FTUS41 KAKQ 181700
TAFSBY
TAF
KSBY 181740Z 1818/1918 30010G17KT P6SM SCT250
     FM182200 29004KT P6SM BKN100
     FM191000 32009KT P6SM SCT040=



000
FTUS41 KAKQ 181100
TAFORF
TAF
KORF 181120Z 1812/1912 36010KT P6SM BKN250
     FM182200 33004KT P6SM BKN250=



000
FTUS41 KAKQ 181100
TAFECG
TAF
KECG 181120Z 1812/1912 35006KT P6SM BKN250
     FM182300 VRB03KT P6SM BKN250=



000
FTUS41 KAKQ 181100
TAFSBY
TAF
KSBY 181120Z 1812/1912 31010KT P6SM BKN250
     FM182200 29004KT P6SM BKN250=



000
FTUS41 KAKQ 181100
TAFRIC
TAF
KRIC 181120Z 1812/1912 34006KT P6SM BKN250
     FM182200 VRB03KT P6SM BKN250=



000
FTUS41 KAKQ 181100
TAFPHF
TAF
KPHF 181120Z 1812/1912 35007KT P6SM BKN250
     FM182200 32004KT P6SM BKN250=



000
FTUS41 KAKQ 180500
TAFRIC
TAF
KRIC 180520Z 1806/1906 36006KT P6SM BKN250
     FM182200 VRB03KT P6SM BKN250=



000
FTUS41 KAKQ 180500
TAFORF
TAF
KORF 180520Z 1806/1906 36009KT P6SM BKN250
     FM182200 33004KT P6SM BKN250=



000
FTUS41 KAKQ 180500
TAFPHF
TAF
KPHF 180520Z 1806/1906 36007KT P6SM BKN250
     FM182200 32004KT P6SM BKN250=



000
FTUS41 KAKQ 180500
TAFECG
TAF
KECG 180520Z 1806/1906 28006KT P6SM BKN250
     FM180800 35007KT P6SM BKN250
     FM182300 VRB03KT P6SM BKN250=



000
FTUS41 KAKQ 180500
TAFSBY
TAF
KSBY 180520Z 1806/1906 31006KT P6SM BKN250
     FM181300 31011KT P6SM BKN250
     FM182200 29004KT P6SM BKN250=



    US Dept of Commerce
    National Oceanic and Atmospheric Administration
    National Weather Service
    1325 East West Highway
    Silver Spring, MD 20910
    Page Author: NWS Internet Services Team
Disclaimer
Information Quality
Credits
Glossary
Privacy Policy
Freedom of Information Act (FOIA)
About Us
Career Opportunities